createdAt,value
2022-12-03T00:01:00.006Z,100.00
2022-12-03T00:03:30.968Z,100.00
2022-12-03T00:06:04.413Z,100.00
2022-12-03T00:08:37.125Z,100.00
2022-12-03T00:11:07.997Z,100.00
2022-12-03T00:13:38.603Z,100.00
2022-12-03T00:16:09.768Z,100.00
2022-12-03T00:18:40.452Z,100.00
2022-12-03T00:21:13.670Z,100.00
2022-12-03T00:23:44.400Z,100.00
2022-12-03T00:26:15.345Z,100.00
2022-12-03T00:28:46.061Z,100.00
2022-12-03T00:31:17.340Z,99.85
2022-12-03T00:33:47.997Z,100.00
2022-12-03T00:36:21.902Z,100.00
2022-12-03T00:38:52.465Z,100.00
2022-12-03T00:41:23.027Z,100.00
2022-12-03T00:43:57.631Z,100.00
2022-12-03T00:46:28.621Z,100.00
2022-12-03T00:48:59.657Z,100.00
2022-12-03T00:51:33.207Z,100.00
2022-12-03T00:54:03.904Z,100.00
2022-12-03T00:56:34.627Z,100.00
2022-12-03T00:59:05.350Z,100.00
2022-12-03T01:01:36.101Z,100.00
2022-12-03T01:04:07.075Z,100.00
2022-12-03T01:06:40.290Z,100.00
2022-12-03T01:09:10.994Z,100.00
2022-12-03T01:11:42.097Z,100.00
2022-12-03T01:14:14.577Z,100.00
2022-12-03T01:16:46.244Z,100.00
2022-12-03T01:19:18.131Z,100.00
2022-12-03T01:21:53.492Z,100.00
2022-12-03T01:24:24.330Z,100.00
2022-12-03T01:26:56.375Z,100.00
2022-12-03T01:29:27.084Z,100.00
2022-12-03T01:32:10.127Z,100.00
2022-12-03T01:34:40.978Z,100.00
2022-12-03T01:37:14.727Z,100.00
2022-12-03T01:39:46.500Z,100.00
2022-12-03T01:42:20.839Z,100.00
2022-12-03T01:44:54.080Z,100.00
2022-12-03T01:47:29.811Z,100.00
2022-12-03T01:50:03.908Z,100.00
2022-12-03T01:52:41.874Z,100.00
2022-12-03T01:55:19.465Z,100.00
2022-12-03T01:57:53.525Z,100.00
2022-12-03T02:00:27.303Z,100.00
2022-12-03T02:03:00.271Z,100.00
2022-12-03T02:05:33.117Z,100.00
2022-12-03T02:08:32.730Z,100.00
2022-12-03T02:11:06.681Z,100.00
2022-12-03T02:14:02.339Z,100.00
2022-12-03T02:16:32.997Z,100.00
2022-12-03T02:19:03.758Z,100.00
2022-12-03T02:21:41.911Z,100.00
2022-12-03T02:24:22.846Z,100.00
2022-12-03T02:26:56.421Z,100.00
2022-12-03T02:29:29.772Z,100.00
2022-12-03T02:32:00.506Z,100.00
2022-12-03T02:34:39.369Z,99.91
2022-12-03T02:37:14.703Z,100.00
2022-12-03T02:39:49.577Z,100.00
2022-12-03T02:42:38.535Z,100.00
2022-12-03T02:45:14.438Z,100.00
2022-12-03T02:47:47.628Z,100.00
2022-12-03T02:50:22.222Z,100.00
2022-12-03T02:52:54.190Z,100.00
2022-12-03T02:55:26.307Z,99.94
2022-12-03T02:58:00.289Z,100.00
2022-12-03T03:00:31.249Z,100.00
2022-12-03T03:03:03.820Z,100.00
2022-12-03T03:05:35.302Z,100.00
2022-12-03T03:08:06.717Z,100.00
2022-12-03T03:10:39.354Z,99.93
2022-12-03T03:13:14.647Z,100.00
2022-12-03T03:15:46.268Z,100.00
2022-12-03T03:18:18.766Z,100.00
2022-12-03T03:20:49.535Z,100.00
2022-12-03T03:23:23.036Z,99.38
2022-12-03T03:25:59.593Z,99.58
2022-12-03T03:28:34.232Z,99.60
2022-12-03T03:31:07.437Z,99.38
2022-12-03T03:33:38.602Z,99.39
2022-12-03T03:36:10.756Z,99.66
2022-12-03T03:38:42.791Z,99.25
2022-12-03T03:41:15.531Z,99.76
2022-12-03T03:43:50.595Z,100.00
2022-12-03T03:46:22.632Z,100.00
2022-12-03T03:48:54.767Z,100.00
2022-12-03T03:51:25.691Z,98.92
2022-12-03T03:53:56.648Z,99.16
2022-12-03T03:56:28.351Z,99.12
2022-12-03T03:59:02.009Z,99.00
2022-12-03T04:01:33.260Z,98.90
2022-12-03T04:04:04.103Z,99.07
2022-12-03T04:06:37.097Z,99.44
2022-12-03T04:09:07.781Z,99.61
2022-12-03T04:11:52.532Z,99.52
2022-12-03T04:14:26.074Z,99.99
2022-12-03T04:16:57.007Z,99.71
2022-12-03T04:19:27.748Z,99.79
2022-12-03T04:22:10.682Z,99.96
2022-12-03T04:24:41.462Z,99.47
2022-12-03T04:27:24.506Z,99.45
2022-12-03T04:29:57.811Z,99.54
2022-12-03T04:32:41.041Z,99.71
2022-12-03T04:35:25.571Z,99.56
2022-12-03T04:37:56.748Z,100.00
2022-12-03T04:40:39.831Z,100.00
2022-12-03T04:43:10.776Z,99.20
2022-12-03T04:45:44.675Z,98.95
2022-12-03T04:48:15.558Z,98.89
2022-12-03T04:50:46.492Z,99.19
2022-12-03T04:53:17.278Z,100.00
2022-12-03T04:55:48.222Z,99.93
2022-12-03T04:58:19.166Z,98.65
2022-12-03T05:00:52.673Z,98.72
2022-12-03T05:03:23.596Z,98.46
2022-12-03T05:05:54.207Z,98.04
2022-12-03T05:08:24.794Z,98.13
2022-12-03T05:10:55.959Z,99.74
2022-12-03T05:13:26.796Z,100.00
2022-12-03T05:16:01.033Z,98.72
2022-12-03T05:18:32.366Z,97.81
2022-12-03T05:21:03.175Z,97.63
2022-12-03T05:23:34.296Z,98.14
2022-12-03T05:26:05.261Z,97.75
2022-12-03T05:28:37.800Z,98.29
2022-12-03T05:31:12.083Z,98.64
2022-12-03T05:33:44.594Z,98.16
2022-12-03T05:36:16.056Z,98.78
2022-12-03T05:38:47.081Z,99.10
2022-12-03T05:41:30.120Z,99.30
2022-12-03T05:44:00.638Z,99.70
2022-12-03T05:46:34.565Z,99.99
2022-12-03T05:49:05.384Z,100.00
2022-12-03T05:51:36.149Z,100.00
2022-12-03T05:54:06.862Z,100.00
2022-12-03T05:56:37.719Z,100.00
2022-12-03T05:59:08.636Z,100.00
2022-12-03T06:01:41.993Z,100.00
2022-12-03T06:04:12.864Z,99.36
2022-12-03T06:06:43.636Z,98.29
2022-12-03T06:09:14.550Z,98.81
2022-12-03T06:11:45.069Z,98.44
2022-12-03T06:14:15.847Z,98.34
2022-12-03T06:16:49.270Z,98.74
2022-12-03T06:19:20.353Z,99.26
2022-12-03T06:21:51.206Z,99.68
2022-12-03T06:24:21.961Z,99.49
2022-12-03T06:26:52.720Z,99.18
2022-12-03T06:29:23.635Z,99.07
2022-12-03T06:31:56.882Z,98.89
2022-12-03T06:34:27.546Z,99.12
2022-12-03T06:36:58.361Z,99.03
2022-12-03T06:39:29.107Z,99.07
2022-12-03T06:41:59.655Z,99.09
2022-12-03T06:44:30.341Z,99.59
2022-12-03T06:47:03.905Z,99.72
2022-12-03T06:49:34.943Z,98.99
2022-12-03T06:52:05.971Z,99.56
2022-12-03T06:54:37.874Z,99.60
2022-12-03T06:57:08.675Z,99.61
2022-12-03T06:59:39.522Z,100.00
2022-12-03T07:02:13.103Z,100.00
2022-12-03T07:04:52.533Z,99.22
2022-12-03T07:07:23.080Z,98.71
2022-12-03T07:09:53.825Z,99.36
2022-12-03T07:12:24.455Z,100.00
2022-12-03T07:14:55.627Z,100.00
2022-12-03T07:17:30.590Z,100.00
2022-12-03T07:20:01.384Z,100.00
2022-12-03T07:22:33.679Z,100.00
2022-12-03T07:25:04.597Z,100.00
2022-12-03T07:27:35.592Z,100.00
2022-12-03T07:30:07.418Z,99.90
2022-12-03T07:32:41.076Z,99.57
2022-12-03T07:35:12.957Z,99.19
2022-12-03T07:37:43.619Z,99.05
2022-12-03T07:40:15.812Z,98.67
2022-12-03T07:42:46.543Z,98.51
2022-12-03T07:45:17.217Z,98.24
2022-12-03T07:47:50.985Z,97.63
2022-12-03T07:50:21.948Z,97.43
2022-12-03T07:52:52.990Z,97.33
2022-12-03T07:55:25.431Z,96.78
2022-12-03T07:57:56.165Z,96.79
2022-12-03T08:00:27.313Z,96.64
2022-12-03T08:03:00.685Z,96.71
2022-12-03T08:05:31.622Z,95.95
2022-12-03T08:08:02.250Z,96.06
2022-12-03T08:10:33.615Z,95.62
2022-12-03T08:13:06.156Z,95.49
2022-12-03T08:15:39.488Z,95.54
2022-12-03T08:18:19.031Z,95.34
2022-12-03T08:20:51.472Z,94.91
2022-12-03T08:23:24.556Z,94.92
2022-12-03T08:26:02.237Z,94.65
2022-12-03T08:28:32.823Z,94.49
2022-12-03T08:31:05.785Z,94.62
2022-12-03T08:33:40.331Z,94.93
2022-12-03T08:36:17.580Z,94.55
2022-12-03T08:38:52.379Z,94.52
2022-12-03T08:41:35.996Z,94.32
2022-12-03T08:44:19.876Z,94.13
2022-12-03T08:46:53.385Z,94.06
2022-12-03T08:49:26.571Z,93.56
2022-12-03T08:52:00.520Z,93.65
2022-12-03T08:54:31.492Z,93.58
2022-12-03T08:57:05.129Z,93.32
2022-12-03T08:59:35.818Z,93.09
2022-12-03T09:02:20.085Z,93.42
2022-12-03T09:04:56.137Z,92.95
2022-12-03T09:07:27.413Z,93.26
2022-12-03T09:09:58.021Z,93.31
2022-12-03T09:12:28.632Z,92.78
2022-12-03T09:14:59.250Z,92.93
2022-12-03T09:17:29.912Z,92.44
2022-12-03T09:20:03.500Z,92.37
2022-12-03T09:22:34.764Z,92.49
2022-12-03T09:25:05.367Z,92.25
2022-12-03T09:27:36.114Z,91.94
2022-12-03T09:30:07.565Z,91.66
2022-12-03T09:32:38.290Z,92.08
2022-12-03T09:35:12.066Z,92.27
2022-12-03T09:37:42.682Z,91.76
2022-12-03T09:40:15.004Z,92.02
2022-12-03T09:42:45.749Z,92.01
2022-12-03T09:45:17.908Z,92.17
2022-12-03T09:47:51.036Z,92.14
2022-12-03T09:50:27.359Z,91.89
2022-12-03T09:53:01.778Z,91.51
2022-12-03T09:55:33.252Z,91.35
2022-12-03T09:58:04.234Z,91.27
2022-12-03T10:00:35.041Z,91.17
2022-12-03T10:03:09.363Z,91.29
2022-12-03T10:05:47.964Z,91.49
2022-12-03T10:08:22.941Z,91.42
2022-12-03T10:10:56.910Z,91.75
2022-12-03T10:13:31.163Z,91.74
2022-12-03T10:16:04.038Z,91.76
2022-12-03T10:18:41.461Z,91.99
2022-12-03T10:21:23.213Z,91.92
2022-12-03T10:24:20.984Z,92.40
2022-12-03T10:26:52.966Z,89.48
2022-12-03T10:29:29.905Z,84.62
2022-12-03T10:32:05.668Z,82.56
2022-12-03T10:34:39.170Z,83.14
2022-12-03T10:37:18.300Z,86.26
2022-12-03T10:40:00.380Z,87.14
2022-12-03T10:42:33.210Z,89.35
2022-12-03T10:45:19.941Z,90.90
2022-12-03T10:48:07.617Z,92.54
2022-12-03T10:50:39.333Z,92.30
2022-12-03T10:53:13.512Z,94.79
2022-12-03T10:55:46.342Z,95.77
2022-12-03T10:58:24.023Z,96.51
2022-12-03T11:00:58.666Z,97.46
2022-12-03T11:03:31.671Z,98.38
2022-12-03T11:06:04.533Z,98.68
2022-12-03T11:09:00.341Z,97.50
2022-12-03T11:11:34.449Z,97.26
2022-12-03T11:14:06.725Z,97.64
2022-12-03T11:17:10.126Z,98.22
2022-12-03T11:19:52.387Z,98.54
2022-12-03T11:22:44.232Z,98.95
2022-12-03T11:25:50.799Z,98.90
2022-12-03T11:28:56.896Z,97.66
2022-12-03T11:31:42.257Z,96.94
2022-12-03T11:34:51.693Z,97.55
2022-12-03T11:37:30.085Z,97.70
2022-12-03T11:40:05.709Z,96.82
2022-12-03T11:42:43.182Z,95.43
2022-12-03T11:45:31.504Z,99.96
2022-12-03T11:48:20.048Z,100.00
2022-12-03T11:50:54.975Z,99.81
2022-12-03T11:53:27.900Z,99.37
2022-12-03T11:56:09.442Z,98.61
2022-12-03T11:58:42.904Z,98.11
2022-12-03T12:01:17.901Z,96.62
2022-12-03T12:03:50.083Z,100.00
2022-12-03T12:06:22.606Z,100.00
2022-12-03T12:09:04.186Z,99.48
2022-12-03T12:11:47.777Z,99.29
2022-12-03T12:14:29.174Z,98.54
2022-12-03T12:17:04.094Z,99.21
2022-12-03T12:19:37.740Z,98.85
2022-12-03T12:22:21.080Z,98.92
2022-12-03T12:24:54.378Z,98.77
2022-12-03T12:27:32.652Z,99.98
2022-12-03T12:30:05.342Z,100.00
2022-12-03T12:32:47.446Z,100.00
2022-12-03T12:35:21.364Z,100.00
2022-12-03T12:37:59.484Z,100.00
2022-12-03T12:40:33.726Z,100.00
2022-12-03T12:43:14.240Z,100.00
2022-12-03T12:45:47.318Z,100.00
2022-12-03T12:48:26.266Z,100.00
2022-12-03T12:51:09.733Z,100.00
2022-12-03T12:53:43.035Z,100.00
2022-12-03T12:56:26.114Z,100.00
2022-12-03T12:58:57.390Z,100.00
2022-12-03T13:01:30.556Z,99.74
2022-12-03T13:04:03.851Z,99.71
2022-12-03T13:06:35.218Z,99.06
2022-12-03T13:09:06.153Z,98.99
2022-12-03T13:11:42.560Z,98.55
2022-12-03T13:14:20.150Z,98.29
2022-12-03T13:16:52.182Z,98.11
2022-12-03T13:19:30.298Z,98.29
2022-12-03T13:22:03.926Z,97.65
2022-12-03T13:24:37.160Z,97.64
2022-12-03T13:27:25.934Z,97.60
2022-12-03T13:29:59.135Z,97.51
2022-12-03T13:32:33.960Z,97.31
2022-12-03T13:35:09.728Z,97.31
2022-12-03T13:37:40.655Z,97.29
2022-12-03T13:40:23.346Z,97.26
2022-12-03T13:42:52.989Z,97.19
2022-12-03T13:45:34.182Z,97.24
2022-12-03T13:48:07.343Z,97.01
2022-12-03T13:50:44.746Z,96.57
2022-12-03T13:53:23.560Z,96.74
2022-12-03T13:55:57.556Z,96.76
2022-12-03T13:58:28.790Z,96.67
2022-12-03T14:00:59.472Z,96.89
2022-12-03T14:03:30.146Z,96.69
2022-12-03T14:06:03.430Z,96.73
2022-12-03T14:08:34.214Z,96.68
2022-12-03T14:11:05.816Z,96.06
2022-12-03T14:13:36.984Z,95.97
2022-12-03T14:16:08.463Z,95.88
2022-12-03T14:18:39.491Z,95.94
2022-12-03T14:21:12.703Z,95.77
2022-12-03T14:23:43.290Z,95.64
2022-12-03T14:26:14.119Z,95.69
2022-12-03T14:28:44.741Z,95.59
2022-12-03T14:31:15.999Z,95.57
2022-12-03T14:33:46.961Z,95.46
2022-12-03T14:36:20.397Z,95.66
2022-12-03T14:38:50.965Z,95.77
2022-12-03T14:41:33.885Z,95.96
2022-12-03T14:44:04.722Z,96.12
2022-12-03T14:46:36.907Z,95.97
2022-12-03T14:49:07.935Z,95.77
2022-12-03T14:51:41.335Z,95.72
2022-12-03T14:54:12.254Z,95.70
2022-12-03T14:56:43.120Z,95.71
2022-12-03T14:59:14.050Z,95.60
2022-12-03T15:01:44.891Z,95.32
2022-12-03T15:04:15.949Z,95.27
2022-12-03T15:06:49.411Z,95.18
2022-12-03T15:09:20.635Z,95.65
2022-12-03T15:11:51.656Z,95.63
2022-12-03T15:14:22.241Z,95.91
2022-12-03T15:16:52.990Z,95.95
2022-12-03T15:19:23.658Z,95.95
2022-12-03T15:21:56.884Z,95.72
2022-12-03T15:24:27.565Z,96.04
2022-12-03T15:26:58.146Z,95.76
2022-12-03T15:29:29.024Z,95.47
2022-12-03T15:32:01.325Z,95.70
2022-12-03T15:34:32.028Z,95.74
2022-12-03T15:37:05.412Z,95.57
2022-12-03T15:39:36.591Z,95.45
2022-12-03T15:42:07.453Z,96.01
2022-12-03T15:44:38.070Z,96.02
2022-12-03T15:47:08.841Z,95.93
2022-12-03T15:49:39.598Z,96.07
2022-12-03T15:52:12.981Z,95.77
2022-12-03T15:54:43.810Z,95.74
2022-12-03T15:57:14.818Z,95.51
2022-12-03T15:59:46.240Z,95.30
2022-12-03T16:02:19.017Z,95.11
2022-12-03T16:04:49.820Z,95.36
2022-12-03T16:07:23.314Z,95.39
2022-12-03T16:09:54.065Z,95.39
2022-12-03T16:12:25.055Z,95.47
2022-12-03T16:14:55.681Z,95.52
2022-12-03T16:17:26.487Z,96.03
2022-12-03T16:19:57.407Z,95.89
2022-12-03T16:22:30.924Z,95.88
2022-12-03T16:25:01.572Z,96.21
2022-12-03T16:27:34.010Z,95.87
2022-12-03T16:30:05.144Z,95.82
2022-12-03T16:32:36.099Z,95.69
2022-12-03T16:35:07.786Z,95.40
2022-12-03T16:37:41.393Z,95.53
2022-12-03T16:40:13.264Z,95.41
2022-12-03T16:42:44.087Z,95.31
2022-12-03T16:45:26.897Z,95.79
2022-12-03T16:47:58.249Z,95.66
2022-12-03T16:50:30.123Z,96.00
2022-12-03T16:53:03.873Z,95.76
2022-12-03T16:55:34.852Z,95.97
2022-12-03T16:58:05.542Z,95.93
2022-12-03T17:00:36.539Z,95.59
2022-12-03T17:03:07.400Z,95.54
2022-12-03T17:05:38.887Z,95.78
2022-12-03T17:08:12.343Z,95.75
2022-12-03T17:10:43.188Z,95.58
2022-12-03T17:13:14.148Z,95.82
2022-12-03T17:15:45.089Z,95.75
2022-12-03T17:18:15.852Z,95.86
2022-12-03T17:20:46.489Z,96.05
2022-12-03T17:23:20.029Z,95.90
2022-12-03T17:25:50.534Z,95.88
2022-12-03T17:28:21.171Z,95.88
2022-12-03T17:30:51.950Z,95.58
2022-12-03T17:33:23.020Z,95.53
2022-12-03T17:35:53.678Z,95.55
2022-12-03T17:38:26.955Z,95.17
2022-12-03T17:40:57.632Z,95.47
2022-12-03T17:43:28.492Z,95.77
2022-12-03T17:46:00.326Z,95.50
2022-12-03T17:48:31.534Z,95.87
2022-12-03T17:51:17.993Z,95.50
2022-12-03T17:53:51.342Z,95.85
2022-12-03T17:56:21.954Z,95.54
2022-12-03T17:58:52.596Z,95.65
2022-12-03T18:01:23.260Z,95.55
2022-12-03T18:03:53.962Z,95.50
2022-12-03T18:06:26.594Z,95.14
2022-12-03T18:08:59.802Z,95.54
2022-12-03T18:11:30.546Z,95.45
2022-12-03T18:14:01.763Z,95.48
2022-12-03T18:16:32.979Z,95.81
2022-12-03T18:19:06.432Z,95.87
2022-12-03T18:21:38.145Z,95.78
2022-12-03T18:24:12.298Z,95.54
2022-12-03T18:26:43.581Z,95.54
2022-12-03T18:29:14.259Z,95.41
2022-12-03T18:31:45.008Z,95.00
2022-12-03T18:34:15.986Z,95.34
2022-12-03T18:36:46.799Z,95.52
2022-12-03T18:39:27.210Z,95.29
2022-12-03T18:41:57.990Z,95.59
2022-12-03T18:44:29.237Z,95.59
2022-12-03T18:47:00.341Z,95.78
2022-12-03T18:49:31.104Z,95.55
2022-12-03T18:52:01.839Z,95.56
2022-12-03T18:54:35.183Z,95.19
2022-12-03T18:57:05.840Z,95.56
2022-12-03T18:59:36.392Z,95.23
2022-12-03T19:02:07.999Z,95.36
2022-12-03T19:04:38.931Z,95.17
2022-12-03T19:07:09.854Z,95.46
2022-12-03T19:09:43.185Z,95.36
2022-12-03T19:12:14.817Z,95.71
2022-12-03T19:14:45.621Z,95.73
2022-12-03T19:17:16.278Z,95.71
2022-12-03T19:19:46.992Z,95.61
2022-12-03T19:22:17.807Z,95.40
2022-12-03T19:24:51.151Z,95.47
2022-12-03T19:27:22.417Z,95.08
2022-12-03T19:29:53.265Z,95.18
2022-12-03T19:32:24.229Z,95.03
2022-12-03T19:34:55.012Z,94.99
2022-12-03T19:37:25.707Z,95.45
2022-12-03T19:39:59.043Z,95.48
2022-12-03T19:42:31.435Z,95.61
2022-12-03T19:45:02.114Z,95.43
2022-12-03T19:47:33.719Z,95.65
2022-12-03T19:50:04.404Z,95.62
2022-12-03T19:52:38.271Z,95.84
2022-12-03T19:55:13.527Z,95.26
2022-12-03T19:57:44.229Z,95.18
2022-12-03T20:00:16.421Z,95.16
2022-12-03T20:02:47.316Z,95.38
2022-12-03T20:05:18.066Z,95.47
2022-12-03T20:07:48.811Z,95.21
2022-12-03T20:10:22.190Z,95.32
2022-12-03T20:12:52.829Z,95.82
2022-12-03T20:15:23.543Z,95.62
2022-12-03T20:17:55.524Z,95.89
2022-12-03T20:20:26.473Z,95.95
2022-12-03T20:22:57.161Z,95.62
2022-12-03T20:25:30.587Z,95.78
2022-12-03T20:28:01.300Z,95.76
2022-12-03T20:30:31.977Z,95.53
2022-12-03T20:33:02.557Z,95.78
2022-12-03T20:35:33.680Z,95.54
2022-12-03T20:38:04.583Z,95.82
2022-12-03T20:40:39.569Z,95.63
2022-12-03T20:43:10.431Z,95.81
2022-12-03T20:45:41.248Z,95.36
2022-12-03T20:48:12.522Z,95.36
2022-12-03T20:50:43.588Z,95.03
2022-12-03T20:53:24.709Z,95.10
2022-12-03T20:56:01.798Z,95.45
2022-12-03T20:58:33.300Z,95.28
2022-12-03T21:01:15.570Z,95.31
2022-12-03T21:03:46.613Z,95.24
2022-12-03T21:06:18.345Z,95.59
2022-12-03T21:08:49.560Z,95.72
2022-12-03T21:11:24.766Z,95.46
2022-12-03T21:13:56.866Z,95.62
2022-12-03T21:16:59.226Z,95.30
2022-12-03T21:19:22.178Z,95.54
2022-12-03T21:21:52.949Z,95.36
2022-12-03T21:24:23.785Z,95.72
2022-12-03T21:26:57.352Z,95.40
2022-12-03T21:29:28.354Z,95.79
2022-12-03T21:31:58.966Z,95.56
2022-12-03T21:34:35.862Z,95.49
2022-12-03T21:37:07.738Z,95.89
2022-12-03T21:39:38.889Z,95.55
2022-12-03T21:42:19.324Z,95.84
2022-12-03T21:45:03.088Z,95.78
2022-12-03T21:47:37.170Z,95.76
2022-12-03T21:50:11.309Z,95.39
2022-12-03T21:52:41.851Z,95.73
2022-12-03T21:55:13.073Z,91.85
2022-12-03T21:57:46.290Z,86.78
2022-12-03T22:00:18.188Z,86.08
2022-12-03T22:02:48.959Z,86.97
2022-12-03T22:05:20.311Z,86.12
2022-12-03T22:07:51.250Z,86.08
2022-12-03T22:10:22.130Z,88.33
2022-12-03T22:12:55.401Z,89.39
2022-12-03T22:15:26.035Z,90.23
2022-12-03T22:17:56.717Z,90.61
2022-12-03T22:20:27.316Z,91.41
2022-12-03T22:22:57.945Z,93.26
2022-12-03T22:25:28.611Z,96.70
2022-12-03T22:28:01.858Z,97.72
2022-12-03T22:30:32.554Z,100.00
2022-12-03T22:33:03.165Z,98.12
2022-12-03T22:35:33.809Z,94.63
2022-12-03T22:38:04.683Z,94.32
2022-12-03T22:40:35.337Z,94.56
2022-12-03T22:43:08.802Z,95.24
2022-12-03T22:45:39.496Z,96.15
2022-12-03T22:48:10.329Z,95.77
2022-12-03T22:50:45.936Z,96.07
2022-12-03T22:53:17.445Z,95.17
2022-12-03T22:55:48.152Z,95.26
2022-12-03T22:58:21.366Z,96.67
2022-12-03T23:00:51.926Z,99.44
2022-12-03T23:03:23.007Z,100.00
2022-12-03T23:05:53.799Z,100.00
2022-12-03T23:08:25.095Z,98.11
2022-12-03T23:10:56.409Z,95.11
2022-12-03T23:13:29.661Z,95.88
2022-12-03T23:16:00.425Z,97.08
2022-12-03T23:18:31.305Z,97.67
2022-12-03T23:21:02.404Z,97.04
2022-12-03T23:23:33.070Z,100.00
2022-12-03T23:26:04.788Z,100.00
2022-12-03T23:28:41.233Z,100.00
2022-12-03T23:31:19.891Z,100.00
2022-12-03T23:33:50.939Z,100.00
2022-12-03T23:36:23.311Z,100.00
2022-12-03T23:38:54.207Z,100.00
2022-12-03T23:41:26.903Z,100.00
2022-12-03T23:44:00.853Z,100.00
2022-12-03T23:46:32.083Z,100.00
2022-12-03T23:49:03.145Z,100.00
2022-12-03T23:51:33.916Z,100.00
2022-12-03T23:54:04.877Z,100.00
2022-12-03T23:56:35.602Z,100.00
2022-12-03T23:59:09.035Z,100.00
